Time;durP1;ratioP1;P1;durP2;ratioP2;P2;SDS_P1;SDS_P2;PMS_P1;PMS_P2;Temp;Humidity;BMP_temperature;BMP_pressure;BME280_temperature;BME280_humidity;BME280_pressure;Samples;Min_cycle;Max_cycle;Signal;HPM_P1;HPM_P2
2023/01/15 00:02:08;;;;;;;1.00;0.98;;;;;;;10.06;46.67;95530.75;4988689;28;20631;-61
2023/01/15 00:04:35;;;;;;;0.47;0.47;;;;;;;9.76;47.29;95530.22;4988032;28;20206;-61
2023/01/15 00:07:03;;;;;;;0.20;0.20;;;;;;;9.81;47.43;95522.47;4988840;28;20186;-64
2023/01/15 00:09:30;;;;;;;0.15;0.15;;;;;;;10.31;46.30;95523.34;4988534;28;20268;-60
2023/01/15 00:11:57;;;;;;;0.20;0.20;;;;;;;10.49;45.78;95522.31;4991988;28;20205;-62
2023/01/15 00:14:23;;;;;;;2.08;0.95;;;;;;;10.34;46.19;95517.63;4992248;28;20191;-62
2023/01/15 00:16:51;;;;;;;1.15;1.08;;;;;;;10.78;45.62;95508.06;4992685;28;20233;-62
2023/01/15 00:19:18;;;;;;;0.10;0.10;;;;;;;10.51;45.15;95521.03;4992394;28;20202;-62
2023/01/15 00:21:45;;;;;;;0.10;0.10;;;;;;;10.74;45.18;95517.44;4991938;28;20230;-61
2023/01/15 00:29:45;;;;;;;0.98;0.57;;;;;;;10.12;46.18;95520.19;4990319;28;20234;-60
2023/01/15 00:32:12;;;;;;;0.10;0.10;;;;;;;10.54;45.49;95517.94;4992283;28;20281;-61
2023/01/15 00:34:39;;;;;;;0.80;0.55;;;;;;;10.25;45.81;95529.53;4990410;28;20202;-63
2023/01/15 00:37:05;;;;;;;0.10;0.10;;;;;;;10.57;45.24;95521.91;4992301;28;20214;-62
2023/01/15 00:39:34;;;;;;;5.20;1.00;;;;;;;10.66;44.99;95518.66;4991546;28;20198;-60
2023/01/15 00:42:01;;;;;;;0.00;0.00;;;;;;;10.68;44.91;95516.56;4992226;28;20199;-61
2023/01/15 00:44:32;;;;;;;2.55;1.95;;;;;;;10.85;44.63;95509.50;4977175;28;20207;-62
2023/01/15 00:46:59;;;;;;;7.13;2.03;;;;;;;10.57;45.26;95506.97;4992418;28;20281;-59
2023/01/15 00:49:26;;;;;;;0.20;0.20;;;;;;;10.90;44.34;95506.94;4990176;28;20202;-60
2023/01/15 00:51:53;;;;;;;0.75;0.75;;;;;;;10.86;44.36;95494.53;4992190;28;20202;-62
2023/01/15 00:54:20;;;;;;;2.13;1.50;;;;;;;10.96;44.16;95498.09;4991872;28;20297;-61
2023/01/15 00:56:47;;;;;;;0.32;0.32;;;;;;;11.09;43.87;95502.97;4990157;28;20241;-63
2023/01/15 00:59:14;;;;;;;0.20;0.20;;;;;;;10.59;44.88;95510.16;4973096;28;20265;-60
2023/01/15 01:01:41;;;;;;;0.65;0.65;;;;;;;10.67;44.56;95509.75;4970601;28;20235;-62
2023/01/15 01:04:08;;;;;;;1.83;1.42;;;;;;;10.81;43.98;95512.81;4970982;28;20606;-61
2023/01/15 01:06:35;;;;;;;0.40;0.40;;;;;;;10.50;44.74;95510.78;4970489;28;20261;-61
2023/01/15 01:09:02;;;;;;;1.98;1.38;;;;;;;10.64;44.29;95489.25;4974317;28;20198;-62
2023/01/15 01:11:33;;;;;;;1.48;1.38;;;;;;;10.12;45.38;95508.91;4989646;28;20645;-61
2023/01/15 01:14:01;;;;;;;0.40;0.40;;;;;;;10.19;45.14;95504.28;4990191;28;20269;-59
2023/01/15 01:16:37;;;;;;;0.30;0.25;;;;;;;10.57;44.77;95501.75;4990494;28;20231;-61
2023/01/15 01:19:10;;;;;;;0.30;0.30;;;;;;;10.69;44.33;95505.03;4990692;28;20301;-61
2023/01/15 01:21:38;;;;;;;0.03;0.03;;;;;;;10.45;44.67;95506.28;4990096;28;20220;-62
2023/01/15 01:24:07;;;;;;;0.77;0.73;;;;;;;10.70;44.52;95506.66;4989617;28;20246;-61
2023/01/15 01:26:34;;;;;;;0.00;0.00;;;;;;;10.65;44.48;95503.97;4990478;28;20202;-62
2023/01/15 01:29:02;;;;;;;0.63;0.63;;;;;;;10.60;44.32;95506.50;4989865;28;20195;-58
2023/01/15 01:31:29;;;;;;;0.10;0.10;;;;;;;10.33;45.26;95510.78;4990633;28;20254;-61
2023/01/15 01:33:58;;;;;;;0.70;0.70;;;;;;;10.33;44.99;95497.69;4989883;28;20202;-60
2023/01/15 01:36:31;;;;;;;0.10;0.10;;;;;;;10.38;45.00;95491.75;4990261;28;20713;-62
2023/01/15 01:38:58;;;;;;;0.30;0.30;;;;;;;10.50;44.87;95493.25;4991411;28;20219;-60
2023/01/15 01:41:26;;;;;;;0.38;0.38;;;;;;;10.47;44.50;95496.38;4990617;28;20194;-62
2023/01/15 01:44:04;;;;;;;2.97;0.98;;;;;;;10.26;45.09;95498.88;4991165;28;20206;-60
2023/01/15 01:46:34;;;;;;;1.33;0.75;;;;;;;10.68;44.35;95489.56;4990548;28;20249;-61
2023/01/15 01:49:03;;;;;;;0.20;0.20;;;;;;;10.66;44.65;95474.09;4990055;28;20570;-63
2023/01/15 01:51:36;;;;;;;0.00;0.00;;;;;;;10.76;44.17;95495.22;4978344;28;20543;-61
2023/01/15 01:54:03;;;;;;;0.73;0.73;;;;;;;10.50;44.27;95474.09;4976560;28;20203;-63
2023/01/15 01:56:34;;;;;;;0.30;0.30;;;;;;;10.32;44.95;95493.50;4990752;28;20222;-61
2023/01/15 01:59:03;;;;;;;0.10;0.10;;;;;;;10.50;44.59;95485.41;4991352;28;20214;-61
2023/01/15 02:01:30;;;;;;;4.60;0.88;;;;;;;10.26;44.99;95493.66;4990591;28;20256;-61
2023/01/15 02:03:57;;;;;;;0.40;0.40;;;;;;;10.38;44.82;95492.56;4990372;28;20202;-60
2023/01/15 02:06:25;;;;;;;0.43;0.43;;;;;;;10.77;44.45;95491.53;4990158;28;20214;-62
2023/01/15 02:08:52;;;;;;;5.80;1.35;;;;;;;10.75;44.07;95488.38;4990612;28;20198;-60
2023/01/15 02:11:22;;;;;;;0.65;0.65;;;;;;;10.60;44.77;95496.00;4988694;28;20276;-60
2023/01/15 02:13:55;;;;;;;0.50;0.50;;;;;;;10.58;44.65;95492.84;4988947;28;20213;-60
2023/01/15 02:16:31;;;;;;;0.40;0.40;;;;;;;10.71;44.21;95487.25;4989753;28;20629;-61
2023/01/15 02:19:06;;;;;;;0.73;0.52;;;;;;;10.27;45.13;95492.63;4989109;28;20658;-62
2023/01/15 02:21:38;;;;;;;1.33;1.23;;;;;;;10.21;44.65;95486.53;4989750;28;20206;-62
2023/01/15 02:24:27;;;;;;;2.28;1.40;;;;;;;9.60;46.03;95478.66;4988996;28;20205;-62
2023/01/15 02:27:16;;;;;;;0.10;0.10;;;;;;;9.71;45.44;95491.66;4970767;28;20258;-61
2023/01/15 02:30:04;;;;;;;0.25;0.25;;;;;;;10.01;44.67;95491.41;4970676;28;20285;-62
2023/01/15 02:32:40;;;;;;;0.35;0.35;;;;;;;10.14;44.89;95491.13;4976769;28;20643;-58
2023/01/15 02:35:15;;;;;;;0.10;0.10;;;;;;;9.67;45.00;95474.06;4988199;28;20194;-60
2023/01/15 02:37:47;;;;;;;0.15;0.15;;;;;;;10.05;45.17;95471.56;4988226;28;20269;-58
2023/01/15 02:40:20;;;;;;;0.38;0.38;;;;;;;10.63;43.97;95476.41;4988238;28;20316;-61
2023/01/15 02:42:48;;;;;;;0.20;0.20;;;;;;;10.40;44.43;95474.75;4988105;28;20230;-60
2023/01/15 02:45:25;;;;;;;0.00;0.00;;;;;;;10.48;44.09;95486.66;4979042;28;20208;-60
2023/01/15 02:47:55;;;;;;;0.00;0.00;;;;;;;10.39;44.01;95478.41;4968824;28;20214;-62
2023/01/15 02:50:29;;;;;;;0.15;0.15;;;;;;;10.82;43.47;95468.00;4984342;28;20277;-62
2023/01/15 02:53:04;;;;;;;2.00;1.00;;;;;;;10.43;44.24;95476.09;4984874;28;20663;-60
2023/01/15 02:55:42;;;;;;;0.40;0.40;;;;;;;10.73;43.62;95477.31;4968907;28;20207;-61
2023/01/15 02:58:15;;;;;;;0.20;0.20;;;;;;;10.28;44.75;95475.88;4979119;28;20215;-63
2023/01/15 03:00:48;;;;;;;0.90;0.90;;;;;;;10.44;44.31;95481.09;4968324;28;20191;-63
2023/01/15 03:03:35;;;;;;;0.25;0.25;;;;;;;11.00;43.08;95478.19;4969078;28;20584;-62
2023/01/15 03:06:23;;;;;;;8.05;0.65;;;;;;;10.57;43.96;95480.78;4984457;28;20199;-63
2023/01/15 03:08:51;;;;;;;0.00;0.00;;;;;;;10.86;43.27;95484.03;4985331;28;20209;-62
2023/01/15 03:11:19;;;;;;;0.55;0.40;;;;;;;10.90;43.00;95487.78;4979123;28;20207;-62
2023/01/15 03:14:07;;;;;;;0.40;0.40;;;;;;;10.94;42.50;95487.06;4987752;28;20194;-62
2023/01/15 03:16:41;;;;;;;0.32;0.32;;;;;;;10.66;43.18;95484.56;4987484;28;20670;-62
2023/01/15 03:19:26;;;;;;;0.00;0.00;;;;;;;10.86;43.05;95491.91;4989715;28;20200;-62
2023/01/15 03:22:01;;;;;;;0.22;0.22;;;;;;;10.85;43.11;95491.13;4987661;28;20545;-61
2023/01/15 03:25:00;;;;;;;0.20;0.20;;;;;;;10.81;43.14;95482.16;4987226;28;20206;-59
2023/01/15 03:27:30;;;;;;;0.57;0.57;;;;;;;10.63;43.31;95473.78;4976087;28;20194;-63
2023/01/15 03:30:03;;;;;;;0.00;0.00;;;;;;;10.68;42.87;95471.22;4987128;28;20622;-61
2023/01/15 03:32:30;;;;;;;0.63;0.40;;;;;;;10.62;43.04;95485.31;4976746;28;20209;-61
2023/01/15 03:34:59;;;;;;;0.10;0.10;;;;;;;10.80;43.14;95475.31;4986504;28;20248;-62
2023/01/15 03:37:27;;;;;;;0.30;0.30;;;;;;;10.73;42.78;95482.56;4987606;28;20264;-60
2023/01/15 03:39:57;;;;;;;2.13;0.52;;;;;;;10.55;43.04;95489.91;4986936;28;20639;-62
2023/01/15 03:43:39;;;;;;;0.00;0.00;;;;;;;10.58;43.50;95492.84;4976251;28;20203;-60
2023/01/15 03:45:38;;;;;;;0.45;0.30;;;;;;;10.71;43.04;95491.72;4970187;28;20240;-62
2023/01/15 03:48:18;;;;;;;0.30;0.30;;;;;;;10.83;43.13;95493.19;4994347;28;20239;-61
2023/01/15 03:51:21;;;;;;;0.32;0.32;;;;;;;11.10;42.80;95491.44;4993722;28;20206;-62
2023/01/15 03:54:01;;;;;;;0.15;0.15;;;;;;;10.93;42.54;95498.56;4993287;28;20206;-62
2023/01/15 03:56:27;;;;;;;1.17;0.90;;;;;;;10.85;42.98;95493.75;4982717;28;20247;-63
2023/01/15 03:58:59;;;;;;;0.10;0.10;;;;;;;10.91;42.60;95495.41;4993692;28;20697;-61
2023/01/15 04:01:41;;;;;;;1.48;1.38;;;;;;;11.13;42.71;95479.69;4982523;28;20203;-62
2023/01/15 04:04:13;;;;;;;1.20;1.10;;;;;;;11.22;42.43;95478.22;4974423;28;20210;-61
2023/01/15 04:06:42;;;;;;;13.85;1.98;;;;;;;11.22;42.36;95484.25;4980945;28;20214;-60
2023/01/15 04:09:11;;;;;;;0.10;0.10;;;;;;;10.91;42.36;95461.31;4990529;28;20194;-61
2023/01/15 04:11:38;;;;;;;0.32;0.32;;;;;;;11.06;42.53;95484.31;4990921;28;20203;-60
2023/01/15 04:14:06;;;;;;;0.20;0.20;;;;;;;10.94;42.88;95481.81;4993586;28;20198;-61
2023/01/15 04:16:49;;;;;;;0.52;0.52;;;;;;;10.53;43.90;95469.19;4993278;28;20287;-62
2023/01/15 04:19:16;;;;;;;0.50;0.50;;;;;;;10.58;43.85;95474.50;4995080;28;20198;-61
2023/01/15 04:21:53;;;;;;;0.15;0.15;;;;;;;11.14;42.74;95473.41;4993525;28;20213;-61
2023/01/15 04:24:20;;;;;;;0.38;0.38;;;;;;;11.10;43.09;95478.34;4995133;28;20198;-62
2023/01/15 04:26:47;;;;;;;0.20;0.20;;;;;;;11.21;43.01;95477.44;4994650;28;20723;-60
2023/01/15 04:29:14;;;;;;;1.30;0.88;;;;;;;11.16;42.88;95485.25;4994879;28;20214;-63
2023/01/15 04:31:41;;;;;;;0.95;0.80;;;;;;;10.54;43.75;95490.94;4994566;28;20585;-62
2023/01/15 04:34:08;;;;;;;0.30;0.30;;;;;;;10.96;43.12;95486.81;4995315;28;20233;-60
2023/01/15 04:36:34;;;;;;;0.85;0.85;;;;;;;10.99;42.94;95475.81;4994628;28;20202;-62
2023/01/15 04:39:03;;;;;;;0.00;0.00;;;;;;;11.11;42.34;95466.03;4993691;28;20222;-61
2023/01/15 04:44:16;;;;;;;1.73;1.02;;;;;;;10.90;42.89;95491.19;4994964;28;20261;-61
2023/01/15 04:46:45;;;;;;;0.55;0.38;;;;;;;11.08;42.31;95483.03;4995067;28;20612;-63
2023/01/15 04:49:16;;;;;;;0.40;0.20;;;;;;;10.95;42.76;95487.84;4994591;28;20218;-62
2023/01/15 04:51:44;;;;;;;3.08;1.92;;;;;;;10.64;43.33;95486.63;4994172;28;20205;-62
2023/01/15 04:54:14;;;;;;;0.63;0.63;;;;;;;10.72;43.26;95488.84;4994856;28;20198;-62
2023/01/15 04:56:43;;;;;;;0.20;0.20;;;;;;;11.04;42.68;95489.00;4993066;28;20690;-60
2023/01/15 04:59:13;;;;;;;0.10;0.10;;;;;;;11.27;42.54;95493.22;4991467;28;20242;-62
2023/01/15 05:01:40;;;;;;;0.20;0.20;;;;;;;10.99;43.12;95494.19;4991585;28;20290;-61
2023/01/15 05:04:24;;;;;;;0.57;0.57;;;;;;;11.00;42.77;95501.03;4979746;28;20225;-61
2023/01/15 05:06:52;;;;;;;0.00;0.00;;;;;;;11.11;42.77;95495.66;4991379;28;20312;-61
2023/01/15 05:09:18;;;;;;;0.47;0.47;;;;;;;10.82;43.08;95499.47;4991820;28;20202;-60
2023/01/15 05:11:45;;;;;;;0.80;0.77;;;;;;;10.96;42.86;95490.25;4990973;28;20281;-60
2023/01/15 05:14:12;;;;;;;0.75;0.22;;;;;;;11.08;43.08;95488.28;4991817;28;20198;-61
2023/01/15 05:16:39;;;;;;;0.03;0.03;;;;;;;11.29;42.55;95491.16;4991437;28;20555;-64
2023/01/15 05:19:06;;;;;;;0.25;0.25;;;;;;;11.12;42.87;95486.75;4991867;28;20263;-59
2023/01/15 05:21:38;;;;;;;0.13;0.13;;;;;;;10.92;43.08;95494.38;4990841;28;20325;-62
2023/01/15 05:24:07;;;;;;;0.77;0.55;;;;;;;10.80;43.22;95498.13;4991139;28;20611;-60
2023/01/15 05:26:35;;;;;;;0.20;0.10;;;;;;;11.10;42.55;95491.44;4990497;28;20272;-61
2023/01/15 05:29:02;;;;;;;0.75;0.75;;;;;;;10.81;42.91;95490.03;4991370;28;20214;-60
2023/01/15 05:31:32;;;;;;;0.22;0.22;;;;;;;10.43;44.14;95503.09;4990446;28;20227;-60
2023/01/15 05:33:59;;;;;;;0.00;0.00;;;;;;;10.80;43.07;95495.53;4991403;28;20195;-61
2023/01/15 05:36:29;;;;;;;0.47;0.47;;;;;;;10.74;42.46;95497.28;4990608;28;20182;-62
2023/01/15 05:39:00;;;;;;;0.22;0.22;;;;;;;10.67;42.77;95486.16;4991650;28;20230;-62
2023/01/15 05:44:16;;;;;;;0.47;0.47;;;;;;;10.55;42.70;95492.53;4990830;28;20208;-60
2023/01/15 05:46:43;;;;;;;0.45;0.45;;;;;;;10.84;42.18;95491.34;4990391;28;20289;-59
2023/01/15 05:49:13;;;;;;;0.00;0.00;;;;;;;10.96;41.50;95492.84;4990666;28;20302;-62
2023/01/15 05:51:41;;;;;;;0.00;0.00;;;;;;;10.96;41.64;95500.72;4990495;28;20751;-63
2023/01/15 05:54:12;;;;;;;0.30;0.30;;;;;;;11.09;41.83;95497.72;4990267;28;20589;-61
2023/01/15 05:56:39;;;;;;;0.85;0.75;;;;;;;10.82;42.07;95504.72;4990491;28;20202;-63
2023/01/15 05:59:07;;;;;;;0.57;0.57;;;;;;;11.11;41.92;95498.28;4990429;28;20726;-62
2023/01/15 06:01:34;;;;;;;0.10;0.10;;;;;;;11.16;41.99;95500.97;4988637;28;20210;-64
2023/01/15 06:04:03;;;;;;;0.77;0.77;;;;;;;11.53;41.35;95505.59;4990655;28;20203;-60
2023/01/15 06:06:32;;;;;;;0.00;0.00;;;;;;;11.18;41.59;95506.75;4990641;28;20201;-62
2023/01/15 06:08:59;;;;;;;0.20;0.10;;;;;;;11.32;41.39;95501.13;4990411;28;20187;-62
2023/01/15 06:11:26;;;;;;;0.00;0.00;;;;;;;11.14;41.58;95500.44;4986792;28;20272;-61
2023/01/15 06:13:53;;;;;;;0.52;0.52;;;;;;;11.31;41.42;95497.75;4988040;28;20218;-61
2023/01/15 06:16:20;;;;;;;0.98;0.95;;;;;;;10.75;41.08;95496.22;4984663;28;22141;-62
2023/01/15 06:18:47;;;;;;;0.15;0.10;;;;;;;10.87;41.10;95499.56;4986168;28;20333;-63
2023/01/15 06:21:14;;;;;;;0.00;0.00;;;;;;;10.41;41.74;95507.78;4985956;28;20237;-59
2023/01/15 06:23:42;;;;;;;0.40;0.40;;;;;;;10.64;41.69;95501.56;4986552;28;20252;-62
2023/01/15 06:26:16;;;;;;;0.73;0.73;;;;;;;10.45;41.87;95502.88;4987300;28;20611;-62
2023/01/15 06:28:44;;;;;;;0.00;0.00;;;;;;;10.56;41.85;95505.41;4987892;28;20210;-61
2023/01/15 06:31:15;;;;;;;0.50;0.50;;;;;;;10.68;41.03;95507.91;4986717;28;20293;-62
2023/01/15 06:33:42;;;;;;;0.50;0.40;;;;;;;10.69;41.36;95499.81;4987355;28;20211;-60
2023/01/15 06:36:20;;;;;;;0.75;0.75;;;;;;;11.09;40.64;95499.56;4986815;28;20253;-60
2023/01/15 06:38:47;;;;;;;0.00;0.00;;;;;;;10.72;41.35;95495.91;4987215;28;20241;-63
2023/01/15 06:49:36;;;;;;;0.05;0.05;;;;;;;11.02;40.89;95504.97;4976794;28;20206;-64
2023/01/15 06:52:03;;;;;;;0.57;0.47;;;;;;;11.31;41.03;95496.94;4989000;28;20265;-63
2023/01/15 06:54:31;;;;;;;1.20;1.13;;;;;;;10.88;42.24;95501.13;4977686;28;20619;-64
2023/01/15 06:56:58;;;;;;;0.90;0.90;;;;;;;11.03;42.79;95506.59;4989684;28;20202;-63
2023/01/15 06:59:24;;;;;;;2.92;1.38;;;;;;;11.21;42.34;95508.91;4979935;28;20627;-62
2023/01/15 07:01:51;;;;;;;2.75;1.48;;;;;;;11.54;41.94;95507.16;4989383;28;20276;-63
2023/01/15 07:04:18;;;;;;;2.05;1.35;;;;;;;10.98;43.20;95508.34;4981816;28;20199;-64
2023/01/15 07:06:45;;;;;;;1.00;0.52;;;;;;;10.82;43.68;95507.34;4988726;28;20277;-63
2023/01/15 07:09:12;;;;;;;1.70;1.38;;;;;;;10.74;44.51;95499.91;4988964;28;20253;-62
2023/01/15 07:11:48;;;;;;;2.88;0.65;;;;;;;10.96;44.29;95503.34;4989209;28;20208;-64
2023/01/15 07:14:22;;;;;;;6.13;2.85;;;;;;;11.35;43.39;95498.06;4984815;28;20198;-63
2023/01/15 07:16:50;;;;;;;0.40;0.40;;;;;;;11.29;43.53;95496.41;4988829;28;20617;-63
2023/01/15 07:19:18;;;;;;;2.55;2.22;;;;;;;11.43;43.30;95500.22;4986979;28;20238;-64
2023/01/15 07:21:45;;;;;;;1.75;0.98;;;;;;;11.55;43.25;95503.53;4987019;28;20713;-65
2023/01/15 07:24:13;;;;;;;2.58;0.85;;;;;;;10.65;44.88;95503.97;4984213;28;20264;-63
2023/01/15 07:26:40;;;;;;;2.00;1.45;;;;;;;10.98;44.86;95503.88;4988125;28;20198;-62
2023/01/15 07:29:08;;;;;;;0.82;0.82;;;;;;;11.36;43.71;95510.13;4987007;28;20205;-63
2023/01/15 07:31:34;;;;;;;0.10;0.10;;;;;;;10.78;44.97;95514.13;4987868;28;20300;-64
2023/01/15 07:34:01;;;;;;;0.52;0.52;;;;;;;11.07;44.17;95512.94;4985065;28;20249;-63
2023/01/15 07:36:28;;;;;;;0.38;0.38;;;;;;;11.39;43.62;95504.38;4985938;28;20288;-63
2023/01/15 07:38:55;;;;;;;4.30;1.30;;;;;;;11.47;43.64;95511.81;4981278;28;20214;-62
2023/01/15 07:49:47;;;;;;;2.33;2.13;;;;;;;11.43;43.85;95524.63;4986645;28;20281;-62
2023/01/15 07:52:16;;;;;;;0.60;0.60;;;;;;;11.37;44.24;95511.72;4987562;28;20594;-62
2023/01/15 07:54:44;;;;;;;2.90;1.65;;;;;;;11.79;44.23;95517.97;4978037;28;20203;-62
2023/01/15 07:57:13;;;;;;;0.98;0.98;;;;;;;12.02;43.82;95501.94;4987255;28;20226;-61
2023/01/15 07:59:41;;;;;;;2.42;1.35;;;;;;;11.85;43.13;95506.47;4980588;28;20304;-61
2023/01/15 08:02:08;;;;;;;2.13;1.65;;;;;;;11.96;42.63;95510.78;4997556;28;20289;-63
2023/01/15 08:04:35;;;;;;;0.52;0.52;;;;;;;11.97;42.70;95507.13;4987385;28;20198;-61
2023/01/15 08:07:03;;;;;;;4.03;1.52;;;;;;;12.48;41.93;95509.13;4988254;28;20694;-61
2023/01/15 08:09:30;;;;;;;1.05;1.05;;;;;;;12.69;42.04;95510.06;4984000;28;20222;-62
2023/01/15 08:17:33;;;;;;;2.60;1.93;;;;;;;13.04;41.02;95516.38;4988309;28;20952;-61
2023/01/15 08:20:04;;;;;;;2.15;1.85;;;;;;;12.80;41.27;95512.50;4987353;28;20492;-62
2023/01/15 08:22:32;;;;;;;9.80;3.67;;;;;;;12.19;42.04;95521.78;4988504;28;20301;-64
2023/01/15 08:24:59;;;;;;;1.30;1.20;;;;;;;12.08;42.21;95524.56;4977788;28;20491;-62
2023/01/15 08:27:26;;;;;;;0.40;0.40;;;;;;;12.13;41.09;95516.75;4988565;28;20206;-61
2023/01/15 08:29:52;;;;;;;1.08;1.08;;;;;;;12.06;41.69;95510.91;4982188;28;20203;-63
2023/01/15 08:32:19;;;;;;;1.10;0.77;;;;;;;11.70;43.02;95525.50;4989828;28;20571;-62
2023/01/15 08:34:46;;;;;;;1.30;1.08;;;;;;;12.25;41.81;95530.50;4986001;28;20456;-60
2023/01/15 08:37:13;;;;;;;0.50;0.50;;;;;;;12.34;41.62;95518.47;4992172;28;20195;-61
2023/01/15 08:39:40;;;;;;;0.70;0.70;;;;;;;12.12;41.86;95520.38;4986166;28;20582;-62
2023/01/15 08:42:07;;;;;;;2.88;1.48;;;;;;;12.11;43.33;95526.69;4991442;28;20996;-61
2023/01/15 08:44:34;;;;;;;1.85;1.75;;;;;;;12.21;41.88;95508.38;4991098;28;20199;-63
2023/01/15 08:47:01;;;;;;;0.77;0.77;;;;;;;12.48;42.02;95511.75;4991543;28;20685;-59
2023/01/15 08:49:27;;;;;;;0.45;0.45;;;;;;;12.79;42.80;95515.41;4986331;28;20214;-61
2023/01/15 08:51:54;;;;;;;2.47;1.47;;;;;;;12.78;42.07;95514.59;4986233;28;20205;-62
2023/01/15 08:54:23;;;;;;;0.30;0.28;;;;;;;12.87;40.81;95513.06;4987320;28;20478;-60
2023/01/15 08:56:50;;;;;;;1.77;0.93;;;;;;;12.03;41.20;95516.63;4987815;28;20199;-62
2023/01/15 08:59:17;;;;;;;0.17;0.17;;;;;;;12.32;41.18;95515.31;4988351;28;20935;-60
2023/01/15 09:01:44;;;;;;;2.90;2.70;;;;;;;12.82;40.77;95513.06;4987898;28;20198;-62
2023/01/15 09:04:17;;;;;;;1.93;1.83;;;;;;;12.55;39.74;95514.97;4989245;28;20472;-62
2023/01/15 09:06:45;;;;;;;0.93;0.93;;;;;;;11.48;40.60;95508.16;4988275;28;20913;-61
2023/01/15 09:09:13;;;;;;;0.53;0.53;;;;;;;12.14;40.87;95523.56;4989167;28;20678;-61
2023/01/15 09:11:43;;;;;;;0.53;0.50;;;;;;;12.34;40.36;95510.59;4988964;28;20450;-62
2023/01/15 09:14:14;;;;;;;0.40;0.40;;;;;;;12.34;40.69;95510.59;4989436;28;20442;-63
2023/01/15 09:17:00;;;;;;;4.70;1.60;;;;;;;12.50;40.18;95507.03;4988355;28;20473;-60
2023/01/15 09:19:27;;;;;;;1.17;1.17;;;;;;;11.96;41.00;95516.03;4987660;28;20490;-63
2023/01/15 09:21:54;;;;;;;0.97;0.90;;;;;;;12.11;41.49;95503.06;4983718;28;20640;-60
2023/01/15 09:24:21;;;;;;;1.63;0.80;;;;;;;12.19;40.19;95507.84;4988335;28;20504;-62
2023/01/15 09:26:51;;;;;;;0.87;0.87;;;;;;;12.37;39.78;95504.81;4987570;28;20450;-62
2023/01/15 09:29:18;;;;;;;0.60;0.60;;;;;;;11.70;41.19;95507.13;4988742;28;21007;-64
2023/01/15 09:31:45;;;;;;;1.67;0.97;;;;;;;12.27;40.58;95496.06;4988394;28;20234;-62
2023/01/15 09:34:13;;;;;;;6.03;1.27;;;;;;;11.95;40.76;95494.22;4990084;28;20462;-61
2023/01/15 09:36:40;;;;;;;0.63;0.63;;;;;;;12.05;41.25;95493.53;5002823;28;20257;-62
2023/01/15 09:39:07;;;;;;;0.20;0.20;;;;;;;12.57;40.74;95481.31;4990644;28;20242;-64
2023/01/15 09:42:09;;;;;;;0.30;0.30;;;;;;;12.83;39.75;95477.81;4988889;28;20245;-62
2023/01/15 09:45:01;;;;;;;0.77;0.47;;;;;;;13.21;38.99;95472.22;4992796;28;20515;-62
2023/01/15 09:47:38;;;;;;;0.30;0.30;;;;;;;13.01;39.76;95474.75;4996926;28;20956;-61
2023/01/15 09:50:38;;;;;;;1.58;1.55;;;;;;;13.25;39.37;95471.75;4983449;28;20438;-63
2023/01/15 09:53:30;;;;;;;0.30;0.30;;;;;;;13.05;38.60;95467.97;4978053;28;20198;-63
2023/01/15 09:56:01;;;;;;;1.05;1.00;;;;;;;13.01;39.39;95451.06;4981913;28;20457;-63
2023/01/15 09:58:35;;;;;;;1.00;1.00;;;;;;;13.10;39.29;95449.56;4990451;28;20214;-63
2023/01/15 10:01:02;;;;;;;1.27;1.13;;;;;;;13.19;39.10;95442.75;4981728;28;21032;-63
2023/01/15 10:03:41;;;;;;;0.93;0.93;;;;;;;13.29;38.71;95441.19;4990952;28;20462;-63
2023/01/15 10:06:18;;;;;;;3.10;1.90;;;;;;;12.62;39.75;95436.69;4983184;28;20477;-62
2023/01/15 10:08:47;;;;;;;1.23;1.23;;;;;;;12.76;39.28;95426.47;4990586;28;20456;-62
2023/01/15 10:11:14;;;;;;;0.10;0.10;;;;;;;12.50;39.64;95422.91;4985091;28;20469;-61
2023/01/15 10:13:48;;;;;;;0.10;0.10;;;;;;;13.13;38.40;95417.47;4990383;28;20445;-62
2023/01/15 10:16:23;;;;;;;0.00;0.00;;;;;;;13.02;39.55;95425.56;4986225;28;20503;-64
2023/01/15 10:18:50;;;;;;;1.13;1.03;;;;;;;13.17;39.17;95412.50;4978778;28;20477;-61
2023/01/15 10:21:39;;;;;;;0.33;0.13;;;;;;;13.59;37.85;95410.50;4989717;28;20442;-62
2023/01/15 10:24:07;;;;;;;0.53;0.53;;;;;;;13.30;37.94;95400.69;4989763;28;20434;-63
2023/01/15 10:26:50;;;;;;;0.27;0.27;;;;;;;13.39;38.14;95394.66;4989485;28;21004;-62
2023/01/15 10:29:53;;;;;;;1.03;0.77;;;;;;;13.60;38.59;95396.25;4990100;28;20506;-60
2023/01/15 10:32:41;;;;;;;0.10;0.10;;;;;;;13.40;39.11;95390.97;4989143;28;20476;-61
2023/01/15 10:35:38;;;;;;;0.47;0.43;;;;;;;13.55;37.98;95382.31;4981854;28;20461;-64
2023/01/15 10:38:32;;;;;;;5.13;3.27;;;;;;;13.56;38.65;95378.59;4987471;28;20811;-60
2023/01/15 10:41:11;;;;;;;1.87;1.77;;;;;;;13.64;39.18;95370.19;4979553;28;20485;-60
2023/01/15 10:44:03;;;;;;;1.50;1.30;;;;;;;13.42;39.41;95372.28;4989015;28;20454;-63
2023/01/15 10:46:37;;;;;;;0.57;0.57;;;;;;;13.58;39.41;95360.69;4984646;28;20986;-62
2023/01/15 10:49:12;;;;;;;1.80;1.63;;;;;;;13.96;38.54;95354.91;4985951;28;21068;-65
2023/01/15 10:51:52;;;;;;;0.33;0.33;;;;;;;13.70;38.68;95358.63;4979041;28;20529;-63
2023/01/15 10:54:27;;;;;;;10.93;1.23;;;;;;;14.21;37.93;95344.34;4988885;28;20449;-60
2023/01/15 10:57:04;;;;;;;0.27;0.27;;;;;;;13.98;38.49;95343.06;4990544;28;20543;-62
2023/01/15 10:59:56;;;;;;;0.30;0.30;;;;;;;13.78;38.54;95318.56;4995485;28;20516;-60
2023/01/15 11:02:48;;;;;;;0.30;0.30;;;;;;;13.38;38.18;95337.00;4990331;28;20450;-61
2023/01/15 11:05:19;;;;;;;0.50;0.50;;;;;;;13.16;38.07;95343.28;4986911;28;20445;-63
2023/01/15 11:07:50;;;;;;;0.77;0.50;;;;;;;13.57;37.91;95332.81;4994185;28;20441;-61
2023/01/15 11:10:38;;;;;;;0.67;0.67;;;;;;;13.86;37.79;95323.31;4992167;28;20441;-63
2023/01/15 11:21:40;;;;;;;0.37;0.37;;;;;;;14.77;36.09;95300.97;4988530;28;20440;-61
2023/01/15 11:24:15;;;;;;;0.00;0.00;;;;;;;14.71;36.36;95301.22;4988230;28;20434;-62
2023/01/15 11:26:47;;;;;;;0.27;0.27;;;;;;;14.80;36.11;95292.50;4988370;28;20461;-62
2023/01/15 11:29:31;;;;;;;0.00;0.00;;;;;;;15.05;35.59;95287.06;4988892;28;20458;-62
2023/01/15 11:31:59;;;;;;;2.43;1.97;;;;;;;14.91;35.58;95291.38;4978397;28;20873;-59
2023/01/15 11:34:25;;;;;;;4.00;3.47;;;;;;;14.73;38.18;95285.94;4988567;28;20879;-62
2023/01/15 11:37:04;;;;;;;2.67;1.60;;;;;;;15.18;36.04;95281.19;4979918;28;20467;-63
2023/01/15 11:39:31;;;;;;;0.20;0.20;;;;;;;15.27;35.18;95283.25;4987956;28;21003;-63
2023/01/15 11:50:53;;;;;;;0.83;0.83;;;;;;;15.55;35.03;95261.41;4988503;28;20446;-62
2023/01/15 11:53:24;;;;;;;0.30;0.30;;;;;;;15.46;34.95;95250.66;4988393;28;20438;-62
2023/01/15 11:56:05;;;;;;;0.77;0.43;;;;;;;15.39;35.96;95252.00;4981825;28;20466;-62
2023/01/15 11:58:39;;;;;;;0.80;0.80;;;;;;;16.13;34.83;95244.44;4986800;28;20477;-63
2023/01/15 12:01:06;;;;;;;0.13;0.13;;;;;;;16.87;33.39;95238.56;4980097;28;20833;-62
2023/01/15 12:03:35;;;;;;;0.00;0.00;;;;;;;16.88;33.87;95246.19;4986745;28;20527;-62
2023/01/15 12:06:09;;;;;;;0.30;0.30;;;;;;;16.50;32.42;95243.78;4985429;28;20448;-60
2023/01/15 12:08:41;;;;;;;0.20;0.20;;;;;;;17.13;32.60;95243.19;4990922;28;20453;-63
2023/01/15 12:11:23;;;;;;;0.37;0.37;;;;;;;18.11;31.62;95231.53;4987175;28;20516;-61
2023/01/15 12:14:08;;;;;;;2.90;1.80;;;;;;;18.49;30.69;95224.97;4990326;28;20438;-62
2023/01/15 12:16:47;;;;;;;0.47;0.33;;;;;;;19.69;29.68;95226.00;4990072;28;20441;-63
2023/01/15 12:19:39;;;;;;;0.00;0.00;;;;;;;20.80;28.42;95221.88;4992573;28;20492;-61
2023/01/15 12:22:25;;;;;;;0.30;0.30;;;;;;;20.78;27.66;95210.00;4985088;28;20481;-62
2023/01/15 12:25:30;;;;;;;0.23;0.23;;;;;;;21.78;26.55;95195.38;4989426;28;20474;-61
2023/01/15 12:28:37;;;;;;;2.07;1.47;;;;;;;20.60;27.12;95206.50;4990425;28;20449;-62
2023/01/15 12:31:10;;;;;;;0.70;0.70;;;;;;;21.06;28.09;95204.09;4982124;28;20478;-62
2023/01/15 12:33:56;;;;;;;1.03;0.73;;;;;;;20.59;27.39;95201.50;4989867;28;20484;-62
2023/01/15 12:36:31;;;;;;;1.20;1.13;;;;;;;20.11;28.32;95193.47;4983185;28;20512;-63
2023/01/15 12:39:13;;;;;;;2.27;1.13;;;;;;;21.18;27.46;95185.59;4991596;28;20922;-61
2023/01/15 12:45:02;;;;;;;1.43;1.30;;;;;;;19.74;28.45;95193.97;4991212;28;20441;-62
2023/01/15 12:47:39;;;;;;;0.40;0.40;;;;;;;18.88;29.24;95196.00;4988063;28;20532;-61
2023/01/15 12:50:38;;;;;;;2.20;1.23;;;;;;;19.67;28.27;95193.63;4991564;28;20444;-62
2023/01/15 12:53:26;;;;;;;1.33;1.23;;;;;;;21.63;26.78;95188.69;4991656;28;20454;-62